Main page
METAR-TAF:

METAR-TAF

Airports :

Almagro, Spain

latitude: 38-57-11N, longitude: 3-44-29W, elevation: 629 m

METAR: missing

Time: 04:09 (02:09 UTC)

Forecast

The report was made 9 hours and 9 minutes ago, at 17:00 UTC
Forecast valid from 28 at 18 UTC to 29 at 03 UTC
Wind 8 kt from the West/Southwest
Visibility 10 km or more
Scattered clouds at a height of 4000 ft
Probability 30% :
Temporary
from 28 at 18 UTC to 29 at 03 UTC
Scattered clouds at a height of 4000 ft, Cumulonimbus.
thunderstorm, rain showers

TAF: LEAO 281700Z 2818/2903 24008KT 9999 SCT040 PROB30 TEMPO 2818/2903 TS SHRA SCT040CB

Weather observations and forecasts of more than 4000 airports (METAR and TAF reports).

The available stations are represented by yellow and red dots on the map.

Hover mouse over dot to see the name of the station.

Then click to see weather observations and forecasts.

To change the map : click on the green buttons with a black cross to zoom in, on the green button with a dash to zoom out, or on the green arrows for adjacent maps.


METAR-TAF: